Time;durP1;ratioP1;P1;durP2;ratioP2;P2;SDS_P1;SDS_P2;PMS_P1;PMS_P2;Temp;Humidity;BMP_temperature;BMP_pressure;BME280_temperature;BME280_humidity;BME280_pressure;Samples;Min_cycle;Max_cycle;Signal;HPM_P1;HPM_P2
2021/12/21 00:01:55;;;;;;;29.23;15.90;;;-0.10;99.90;;;;;;4989850;28;20042;-64
2021/12/21 00:04:21;;;;;;;28.23;15.05;;;-0.10;99.90;;;;;;5004578;28;20041;-63
2021/12/21 00:06:46;;;;;;;28.45;13.48;;;-0.10;99.90;;;;;;5003624;28;20045;-63
2021/12/21 00:09:12;;;;;;;24.97;13.70;;;-0.10;99.90;;;;;;5001321;28;20116;-63
2021/12/21 00:11:38;;;;;;;23.92;13.57;;;-0.10;99.90;;;;;;5003625;28;20038;-63
2021/12/21 00:21:52;;;;;;;24.70;11.43;;;-0.20;99.90;;;;;;4969958;28;20041;-64
2021/12/21 00:24:22;;;;;;;21.83;12.90;;;-0.20;99.90;;;;;;5002665;28;20038;-65
2021/12/21 00:26:48;;;;;;;24.43;13.33;;;-0.20;99.90;;;;;;5019431;28;20107;-64
2021/12/21 00:29:13;;;;;;;18.17;11.17;;;-0.30;99.90;;;;;;5001516;28;20054;-64
2021/12/21 00:31:40;;;;;;;20.23;11.03;;;-0.30;99.90;;;;;;5001836;28;20047;-64
2021/12/21 00:34:07;;;;;;;22.93;11.67;;;-0.30;99.90;;;;;;4999540;28;20462;-64
2021/12/21 00:36:35;;;;;;;20.57;10.83;;;-0.30;99.90;;;;;;4984720;28;20069;-65
2021/12/21 00:39:06;;;;;;;18.37;10.27;;;-0.30;99.90;;;;;;5002035;28;20057;-65
2021/12/21 00:41:35;;;;;;;18.58;8.60;;;-0.30;99.90;;;;;;4991313;28;20042;-64
2021/12/21 00:44:00;;;;;;;19.73;11.97;;;-0.30;99.90;;;;;;4968939;28;20029;-65
2021/12/21 00:46:26;;;;;;;17.97;9.63;;;-0.30;99.90;;;;;;4983342;28;20121;-65
2021/12/21 00:48:55;;;;;;;16.90;9.60;;;-0.30;99.90;;;;;;4997930;28;20049;-64
2021/12/21 00:51:26;;;;;;;17.33;9.30;;;-0.40;99.90;;;;;;4976083;28;20042;-64
2021/12/21 00:53:52;;;;;;;20.13;10.93;;;-0.40;99.90;;;;;;5002986;28;20046;-65
2021/12/21 00:56:18;;;;;;;16.83;9.38;;;-0.40;99.90;;;;;;4999527;28;20222;-66
2021/12/21 00:58:44;;;;;;;16.10;9.77;;;-0.40;99.90;;;;;;4988732;28;20046;-64
2021/12/21 01:01:09;;;;;;;17.80;9.17;;;-0.40;99.90;;;;;;4996620;28;20036;-65
2021/12/21 01:03:44;;;;;;;14.83;7.77;;;-0.40;99.90;;;;;;5001328;28;20042;-63
2021/12/21 01:06:20;;;;;;;15.17;9.37;;;-0.40;99.90;;;;;;5001256;28;20037;-64
2021/12/21 01:11:30;;;;;;;14.43;8.53;;;-0.50;99.90;;;;;;4995218;28;20073;-64
2021/12/21 01:22:01;;;;;;;13.67;8.40;;;-0.50;99.90;;;;;;5001325;28;20382;-64
2021/12/21 01:29:54;;;;;;;13.53;7.60;;;-0.60;99.90;;;;;;4996992;28;20130;-64
2021/12/21 01:35:10;;;;;;;11.90;7.17;;;-0.60;99.90;;;;;;4998456;28;20042;-64
2021/12/21 01:37:50;;;;;;;11.50;7.23;;;-0.60;99.90;;;;;;5000624;28;20053;-64
2021/12/21 01:50:58;;;;;;;;;;;-0.70;99.90;;;;;;4998697;28;20057;-64
2021/12/21 01:53:24;;;;;;;13.23;6.63;;;-0.70;99.90;;;;;;4997000;28;19917;-65
2021/12/21 01:55:50;;;;;;;16.80;6.67;;;-0.70;99.90;;;;;;5000811;28;20042;-65
2021/12/21 01:58:19;;;;;;;13.97;6.87;;;-0.70;99.90;;;;;;4997417;28;20728;-65
2021/12/21 02:00:44;;;;;;;12.40;6.93;;;-0.80;99.90;;;;;;5000599;28;20132;-65
2021/12/21 02:03:10;;;;;;;11.80;7.20;;;-0.80;99.90;;;;;;4999060;28;20072;-65
2021/12/21 02:05:37;;;;;;;12.17;7.23;;;-0.80;99.90;;;;;;4983735;28;20038;-64
2021/12/21 02:08:05;;;;;;;14.90;6.90;;;-0.80;99.90;;;;;;5003362;28;20044;-64
2021/12/21 02:10:30;;;;;;;12.43;6.80;;;-0.80;99.90;;;;;;5005131;28;20057;-63
2021/12/21 02:12:56;;;;;;;12.77;6.83;;;-0.80;99.90;;;;;;4997151;28;20049;-64
2021/12/21 02:15:24;;;;;;;11.87;6.57;;;-0.80;99.90;;;;;;4999564;28;20046;-65
2021/12/21 02:23:10;;;;;;;13.17;6.57;;;-0.90;99.90;;;;;;4930323;28;20476;-55
2021/12/21 02:25:59;;;;;;;11.10;6.73;;;-0.90;99.90;;;;;;4977523;28;20452;-56
2021/12/21 02:30:58;;;;;;;14.23;6.50;;;-0.90;99.90;;;;;;4975486;28;20551;-56
2021/12/21 02:33:26;;;;;;;11.80;6.50;;;-0.90;99.90;;;;;;4972110;28;20038;-55
2021/12/21 02:35:52;;;;;;;9.80;6.03;;;-0.90;99.90;;;;;;4978526;28;20129;-56
2021/12/21 02:38:18;;;;;;;10.00;6.00;;;-0.90;99.90;;;;;;4980289;28;20437;-54
2021/12/21 02:40:44;;;;;;;13.07;6.37;;;-1.00;99.90;;;;;;4973988;28;20108;-56
2021/12/21 02:43:10;;;;;;;14.07;7.00;;;-0.90;99.90;;;;;;4962233;28;20038;-54
2021/12/21 02:45:38;;;;;;;13.23;7.33;;;-0.90;99.90;;;;;;4953442;28;20165;-55
2021/12/21 02:48:05;;;;;;;13.70;7.07;;;-1.00;99.90;;;;;;4977304;28;20576;-57
2021/12/21 02:50:31;;;;;;;13.53;6.37;;;-1.00;99.90;;;;;;4954856;28;20502;-55
2021/12/21 02:52:59;;;;;;;12.27;6.63;;;-1.00;99.90;;;;;;4945145;28;20053;-56
2021/12/21 02:55:25;;;;;;;17.20;7.43;;;-1.00;99.90;;;;;;4958349;28;20058;-55
2021/12/21 02:57:51;;;;;;;12.47;7.50;;;-1.00;99.90;;;;;;4959464;28;20090;-57
2021/12/21 03:00:17;;;;;;;13.60;6.93;;;-1.00;99.90;;;;;;4967081;28;20586;-55
2021/12/21 03:02:43;;;;;;;12.70;6.70;;;-1.00;99.90;;;;;;4955190;28;20110;-56
2021/12/21 03:05:08;;;;;;;12.80;6.93;;;-1.10;99.90;;;;;;4954487;28;20052;-54
2021/12/21 03:10:09;;;;;;;12.67;7.10;;;-1.00;99.90;;;;;;4957371;28;20042;-57
2021/12/21 03:15:20;;;;;;;13.10;7.13;;;-1.00;99.90;;;;;;4948264;28;20043;-56
2021/12/21 03:17:46;;;;;;;14.07;7.20;;;-1.10;99.90;;;;;;4961461;28;20042;-57
2021/12/21 03:20:12;;;;;;;9.73;6.60;;;-1.10;99.90;;;;;;4956367;28;20054;-56
2021/12/21 03:22:37;;;;;;;12.73;6.47;;;-1.10;99.90;;;;;;4961765;28;20049;-56
2021/12/21 03:25:04;;;;;;;11.00;7.30;;;-1.10;99.90;;;;;;4976282;28;20070;-57
2021/12/21 03:27:29;;;;;;;9.53;6.33;;;-1.10;99.90;;;;;;4960220;28;20047;-56
2021/12/21 03:29:55;;;;;;;11.27;7.00;;;-1.10;99.90;;;;;;4964776;28;20049;-56
2021/12/21 03:32:21;;;;;;;14.27;8.03;;;-1.10;99.90;;;;;;4975686;28;20054;-57
2021/12/21 03:34:47;;;;;;;10.50;6.80;;;-1.10;99.90;;;;;;4960498;28;20322;-56
2021/12/21 03:37:14;;;;;;;15.20;8.43;;;-1.20;99.90;;;;;;4980188;28;20030;-55
2021/12/21 03:39:45;;;;;;;12.13;7.33;;;-1.20;99.90;;;;;;4961873;28;20046;-57
2021/12/21 03:42:13;;;;;;;12.10;7.03;;;-1.10;99.90;;;;;;4982098;28;20056;-56
2021/12/21 03:44:39;;;;;;;11.07;7.10;;;-1.10;99.90;;;;;;4962604;28;20030;-56
2021/12/21 03:47:09;;;;;;;15.57;7.53;;;-1.20;99.90;;;;;;4962206;28;20056;-55
2021/12/21 03:52:08;;;;;;;16.27;7.43;;;-1.20;99.90;;;;;;4978346;28;20529;-56
2021/12/21 03:54:34;;;;;;;14.67;7.67;;;-1.20;99.90;;;;;;4982859;28;20303;-56
2021/12/21 03:57:01;;;;;;;12.77;7.53;;;-1.20;99.90;;;;;;4973570;28;20171;-57
2021/12/21 03:59:27;;;;;;;12.13;7.33;;;-1.20;99.90;;;;;;4957462;28;20047;-57
2021/12/21 04:01:53;;;;;;;14.47;8.10;;;-1.20;99.90;;;;;;4959781;28;20045;-56
2021/12/21 04:04:19;;;;;;;11.77;7.10;;;-1.30;99.90;;;;;;4982578;28;20397;-54
2021/12/21 04:06:46;;;;;;;15.40;7.30;;;-1.30;99.90;;;;;;4960724;28;20117;-55
2021/12/21 04:09:12;;;;;;;12.63;7.20;;;-1.30;99.90;;;;;;4979355;28;20536;-55
2021/12/21 04:11:38;;;;;;;17.20;8.10;;;-1.30;99.90;;;;;;4976686;28;20047;-55
2021/12/21 04:14:04;;;;;;;13.90;7.30;;;-1.30;99.90;;;;;;4962399;28;20128;-56
2021/12/21 04:16:30;;;;;;;15.00;6.93;;;-1.40;99.90;;;;;;4965390;28;20034;-57
2021/12/21 04:18:56;;;;;;;12.70;7.80;;;-1.30;99.90;;;;;;4963343;28;20054;-55
2021/12/21 04:21:22;;;;;;;12.57;7.30;;;-1.40;99.90;;;;;;4946480;28;20489;-54
2021/12/21 04:23:48;;;;;;;14.27;7.70;;;-1.30;99.90;;;;;;4977468;28;20053;-54
2021/12/21 04:26:15;;;;;;;12.90;7.60;;;-1.40;99.90;;;;;;4950345;28;20042;-54
2021/12/21 04:28:42;;;;;;;12.67;8.50;;;-1.40;99.90;;;;;;4984398;28;20524;-54
2021/12/21 04:31:10;;;;;;;13.77;7.40;;;-1.40;99.90;;;;;;4972462;28;20524;-55
2021/12/21 04:33:37;;;;;;;12.17;7.67;;;-1.40;99.90;;;;;;4980991;28;20046;-56
2021/12/21 04:36:04;;;;;;;11.90;7.20;;;-1.40;99.90;;;;;;4962043;28;20046;-55
2021/12/21 04:38:37;;;;;;;12.93;8.20;;;-1.40;99.90;;;;;;4964269;28;20489;-57
2021/12/21 04:41:11;;;;;;;14.03;7.70;;;-1.40;99.90;;;;;;4969853;28;20054;-55
2021/12/21 04:43:37;;;;;;;12.10;7.90;;;-1.40;99.90;;;;;;4955272;28;20520;-54
2021/12/21 04:46:04;;;;;;;12.73;7.30;;;-1.50;99.90;;;;;;4955090;28;20117;-53
2021/12/21 04:48:30;;;;;;;14.07;7.13;;;-1.50;99.90;;;;;;4984742;28;20448;-56
2021/12/21 04:50:56;;;;;;;16.23;7.53;;;-1.50;99.90;;;;;;4990732;28;20038;-54
2021/12/21 04:53:22;;;;;;;17.13;7.63;;;-1.50;99.90;;;;;;4969465;28;20409;-55
2021/12/21 04:55:49;;;;;;;16.23;7.47;;;-1.50;99.90;;;;;;4970701;28;20092;-56
2021/12/21 04:58:15;;;;;;;12.33;7.57;;;-1.50;99.90;;;;;;4955118;28;20035;-56
2021/12/21 05:00:41;;;;;;;15.83;7.40;;;-1.50;99.90;;;;;;4952615;28;20053;-56
2021/12/21 05:03:07;;;;;;;13.03;8.20;;;-1.50;99.90;;;;;;4959112;28;20042;-57
2021/12/21 05:05:33;;;;;;;13.93;7.63;;;-1.50;99.90;;;;;;4973539;28;20034;-56
2021/12/21 05:08:10;;;;;;;12.33;7.47;;;-1.50;99.90;;;;;;4976517;28;20041;-54
2021/12/21 05:10:50;;;;;;;14.50;7.27;;;-1.50;99.90;;;;;;4959519;28;20315;-56
2021/12/21 05:13:17;;;;;;;14.37;7.27;;;-1.50;99.90;;;;;;4969325;28;20133;-54
2021/12/21 05:15:44;;;;;;;15.27;7.67;;;-1.40;99.90;;;;;;4972186;28;20048;-56
2021/12/21 05:18:11;;;;;;;11.90;7.53;;;-1.50;99.90;;;;;;4954149;28;20071;-56
2021/12/21 05:20:38;;;;;;;14.30;7.90;;;-1.50;99.90;;;;;;4970807;28;20049;-55
2021/12/21 05:23:04;;;;;;;19.33;8.73;;;-1.50;99.90;;;;;;4967383;28;20402;-57
2021/12/21 05:25:30;;;;;;;14.67;8.17;;;-1.50;99.90;;;;;;4975806;28;20038;-57
2021/12/21 05:27:56;;;;;;;14.03;7.73;;;-1.50;99.90;;;;;;4972929;28;20042;-57
2021/12/21 05:30:23;;;;;;;17.57;8.87;;;-1.50;99.90;;;;;;4969139;28;20041;-57
2021/12/21 05:32:52;;;;;;;11.03;6.47;;;-1.50;99.90;;;;;;4969625;28;20122;-55
2021/12/21 05:35:18;;;;;;;16.50;8.50;;;-1.50;99.90;;;;;;4970882;28;20441;-57
2021/12/21 05:37:46;;;;;;;14.63;8.10;;;-1.50;99.90;;;;;;4949238;28;20116;-57
2021/12/21 05:40:15;;;;;;;11.50;7.60;;;-1.60;99.90;;;;;;4958242;28;20047;-55
2021/12/21 05:42:42;;;;;;;11.53;7.13;;;-1.60;99.90;;;;;;4982126;28;20045;-57
2021/12/21 05:45:10;;;;;;;14.60;7.30;;;-1.60;99.90;;;;;;4959705;28;20477;-56
2021/12/21 05:47:36;;;;;;;13.70;7.33;;;-1.60;99.90;;;;;;4977407;28;20050;-56
2021/12/21 05:50:09;;;;;;;13.90;7.77;;;-1.60;99.90;;;;;;4966454;28;20030;-56
2021/12/21 05:52:35;;;;;;;14.77;7.80;;;-1.60;99.90;;;;;;4948840;28;20403;-54
2021/12/21 05:55:02;;;;;;;19.07;8.90;;;-1.60;99.90;;;;;;4952227;28;20049;-56
2021/12/21 05:57:28;;;;;;;14.07;8.20;;;-1.60;99.90;;;;;;4974670;28;20047;-56
2021/12/21 05:59:54;;;;;;;14.43;7.43;;;-1.60;99.90;;;;;;4959717;28;20051;-57
2021/12/21 06:02:20;;;;;;;19.37;9.17;;;-1.60;99.90;;;;;;4945735;28;20162;-55
2021/12/21 06:04:46;;;;;;;13.57;7.53;;;-1.60;99.90;;;;;;4956344;28;20081;-56
2021/12/21 06:07:11;;;;;;;14.57;8.47;;;-1.60;99.90;;;;;;4964805;28;20393;-57
2021/12/21 06:09:37;;;;;;;20.97;9.87;;;-1.60;99.90;;;;;;4961668;28;20042;-57
2021/12/21 06:14:52;;;;;;;15.80;9.37;;;-1.60;99.90;;;;;;4961007;28;20541;-58
2021/12/21 06:25:40;;;;;;;20.53;8.23;;;-1.80;99.90;;;;;;4974428;28;20053;-57
2021/12/21 06:28:08;;;;;;;14.97;8.30;;;-1.80;99.90;;;;;;4963386;28;20065;-55
2021/12/21 06:30:36;;;;;;;15.93;8.93;;;-1.80;99.90;;;;;;4966165;28;22374;-53
2021/12/21 06:33:02;;;;;;;19.00;10.73;;;-1.80;99.90;;;;;;4961926;28;20038;-55
2021/12/21 06:35:28;;;;;;;15.80;9.67;;;-1.80;99.90;;;;;;4961390;28;20543;-57
2021/12/21 06:37:54;;;;;;;17.53;9.30;;;-1.80;99.90;;;;;;4977805;28;20204;-54
2021/12/21 06:40:20;;;;;;;18.17;9.10;;;-1.80;99.90;;;;;;4959863;28;20689;-54
2021/12/21 06:42:49;;;;;;;16.50;8.97;;;-1.80;99.90;;;;;;4971569;28;20070;-55
2021/12/21 06:45:27;;;;;;;17.30;8.17;;;-1.80;99.90;;;;;;4958216;28;20038;-55
2021/12/21 06:53:23;;;;;;;15.37;8.67;;;-1.80;99.90;;;;;;4967026;28;20046;-55
2021/12/21 06:55:49;;;;;;;13.23;8.33;;;-1.80;99.90;;;;;;4963961;28;20136;-57
2021/12/21 06:58:15;;;;;;;19.93;8.90;;;-1.80;99.90;;;;;;4968651;28;20485;-57
2021/12/21 07:00:42;;;;;;;19.70;9.83;;;-1.80;99.90;;;;;;4968380;28;20305;-57
2021/12/21 07:03:08;;;;;;;19.10;10.40;;;-1.80;99.90;;;;;;4975655;28;20309;-57
2021/12/21 07:05:34;;;;;;;14.73;9.47;;;-1.80;99.90;;;;;;4982032;28;20208;-57
2021/12/21 07:08:00;;;;;;;23.07;9.67;;;-1.80;99.90;;;;;;4959556;28;20069;-57
2021/12/21 07:10:27;;;;;;;15.47;8.77;;;-1.90;99.90;;;;;;4979859;28;20046;-56
2021/12/21 07:18:29;;;;;;;13.40;9.37;;;-1.90;99.90;;;;;;4964132;28;20194;-58
2021/12/21 07:20:56;;;;;;;15.40;8.83;;;-1.90;99.90;;;;;;4978276;28;20039;-56
2021/12/21 07:23:22;;;;;;;17.90;10.57;;;-1.90;99.90;;;;;;4975347;28;20090;-57
2021/12/21 07:25:50;;;;;;;16.43;10.17;;;-1.90;99.90;;;;;;4962934;28;20042;-56
2021/12/21 07:28:16;;;;;;;24.33;11.20;;;-1.90;99.90;;;;;;4969190;28;20510;-56
2021/12/21 07:30:41;;;;;;;17.40;10.23;;;-1.90;99.90;;;;;;4963033;28;20104;-56
2021/12/21 07:33:08;;;;;;;15.67;9.37;;;-1.90;99.90;;;;;;4934988;28;20053;-53
2021/12/21 07:35:34;;;;;;;17.40;10.57;;;-1.90;99.90;;;;;;4965405;28;20112;-56
2021/12/21 07:38:00;;;;;;;20.97;12.47;;;-1.80;99.90;;;;;;4962697;28;20687;-56
2021/12/21 07:40:26;;;;;;;21.20;12.93;;;-1.80;99.90;;;;;;4970756;28;20042;-55
2021/12/21 07:42:52;;;;;;;19.60;11.10;;;-1.90;99.90;;;;;;4958848;28;20113;-56
2021/12/21 07:45:17;;;;;;;19.00;10.40;;;-1.90;99.90;;;;;;4962671;28;20043;-57
2021/12/21 07:47:43;;;;;;;16.40;10.10;;;-1.90;99.90;;;;;;4987225;28;20035;-54
2021/12/21 07:50:10;;;;;;;19.17;11.47;;;-1.90;99.90;;;;;;4982082;28;20062;-56
2021/12/21 07:52:36;;;;;;;23.63;11.47;;;-1.90;99.90;;;;;;4967150;28;20140;-57
2021/12/21 07:55:04;;;;;;;23.50;12.57;;;-1.90;99.90;;;;;;4960174;28;20114;-56
2021/12/21 07:57:31;;;;;;;25.33;10.83;;;-1.90;99.90;;;;;;4978861;28;20401;-56
2021/12/21 07:59:58;;;;;;;16.63;10.40;;;-1.90;99.90;;;;;;4933684;28;20717;-55
2021/12/21 08:02:26;;;;;;;17.73;10.87;;;-1.90;99.90;;;;;;4964602;28;20129;-57
2021/12/21 08:04:52;;;;;;;19.17;10.43;;;-1.90;99.90;;;;;;4973137;28;20050;-57
2021/12/21 08:07:23;;;;;;;18.00;9.70;;;-1.90;99.90;;;;;;4965412;28;20048;-55
2021/12/21 08:09:52;;;;;;;19.43;11.20;;;-2.00;99.90;;;;;;4965707;28;20038;-53
2021/12/21 08:12:19;;;;;;;18.10;10.00;;;-1.90;99.90;;;;;;4975325;28;20042;-54
2021/12/21 08:14:48;;;;;;;19.40;10.33;;;-1.90;99.90;;;;;;4958950;28;20042;-57
2021/12/21 08:17:14;;;;;;;16.23;9.60;;;-1.90;99.90;;;;;;4963373;28;20035;-56
2021/12/21 08:19:40;;;;;;;15.30;9.83;;;-1.90;99.90;;;;;;4959721;28;20127;-56
2021/12/21 08:22:06;;;;;;;15.97;9.27;;;-1.90;99.90;;;;;;4941482;28;20046;-54
2021/12/21 08:24:33;;;;;;;14.83;10.27;;;-1.90;99.90;;;;;;4992961;22;20468;-63
2021/12/21 08:27:02;;;;;;;18.13;9.33;;;-1.90;99.90;;;;;;4993214;28;20396;-62
2021/12/21 08:29:29;;;;;;;21.67;9.70;;;-1.90;99.90;;;;;;4985035;28;20041;-62
2021/12/21 08:31:55;;;;;;;15.47;10.67;;;-1.90;99.90;;;;;;4985420;28;20117;-62
2021/12/21 08:34:21;;;;;;;15.90;9.47;;;-1.90;99.90;;;;;;4983645;28;20412;-62
2021/12/21 08:36:47;;;;;;;14.60;10.20;;;-1.80;99.90;;;;;;5002788;28;20089;-62
2021/12/21 08:39:15;;;;;;;19.37;10.60;;;-1.80;99.90;;;;;;4997701;28;20095;-63
2021/12/21 08:41:43;;;;;;;21.67;11.20;;;-1.80;99.90;;;;;;4973756;28;20664;-62
2021/12/21 08:44:11;;;;;;;21.70;10.93;;;-1.80;99.90;;;;;;4988733;28;20053;-62
2021/12/21 08:46:40;;;;;;;17.20;10.33;;;-1.70;99.90;;;;;;4988969;28;20123;-62
2021/12/21 08:49:06;;;;;;;19.27;11.23;;;-1.70;99.90;;;;;;4993879;28;20046;-61
2021/12/21 08:51:32;;;;;;;22.77;12.77;;;-1.60;99.90;;;;;;4985275;28;20105;-62
2021/12/21 08:53:58;;;;;;;22.40;13.93;;;-1.60;99.90;;;;;;4986044;28;20656;-63
2021/12/21 08:56:24;;;;;;;17.03;12.70;;;-1.60;99.90;;;;;;4974263;28;20072;-62
2021/12/21 08:58:50;;;;;;;19.03;11.60;;;-1.50;99.90;;;;;;4988691;28;20524;-62
2021/12/21 09:01:16;;;;;;;22.90;12.33;;;-1.40;99.90;;;;;;4976209;28;20090;-63
2021/12/21 09:03:43;;;;;;;20.53;14.00;;;-1.30;99.90;;;;;;4975926;28;20468;-63
2021/12/21 09:06:09;;;;;;;24.53;13.07;;;-1.30;99.90;;;;;;4978504;28;20153;-61
2021/12/21 09:08:35;;;;;;;24.37;12.73;;;-1.20;99.90;;;;;;4990311;28;20045;-62
2021/12/21 09:11:02;;;;;;;21.90;13.30;;;-1.20;99.90;;;;;;4986594;28;20049;-61
2021/12/21 09:13:29;;;;;;;21.53;13.00;;;-1.10;99.90;;;;;;4992045;28;20053;-61
2021/12/21 09:15:55;;;;;;;20.53;13.53;;;-1.00;99.90;;;;;;4988578;28;20033;-63
2021/12/21 09:18:21;;;;;;;21.80;12.83;;;-0.90;99.90;;;;;;4991379;28;20429;-63
2021/12/21 09:20:46;;;;;;;30.10;15.90;;;-0.80;99.90;;;;;;4988940;28;20050;-63
2021/12/21 09:23:13;;;;;;;22.23;14.47;;;-0.70;99.90;;;;;;4992225;28;20037;-61
2021/12/21 09:25:39;;;;;;;21.37;13.33;;;-0.60;99.90;;;;;;4990638;28;20054;-61
2021/12/21 09:28:05;;;;;;;22.93;13.27;;;-0.60;99.90;;;;;;4992482;28;20041;-62
2021/12/21 09:30:32;;;;;;;21.30;12.23;;;-0.50;99.90;;;;;;4974649;28;20048;-61
2021/12/21 09:32:59;;;;;;;22.00;11.97;;;-0.40;99.90;;;;;;4988925;28;20488;-60
2021/12/21 09:35:26;;;;;;;21.40;12.30;;;-0.30;99.90;;;;;;4994235;28;20040;-62
2021/12/21 09:37:53;;;;;;;22.67;12.23;;;-0.30;99.90;;;;;;5008165;28;20046;-62
2021/12/21 09:40:25;;;;;;;19.53;10.87;;;-0.10;99.90;;;;;;4991642;28;20049;-62
2021/12/21 09:42:53;;;;;;;18.50;11.90;;;0.00;99.90;;;;;;4989313;28;20045;-61
2021/12/21 09:45:20;;;;;;;25.97;12.33;;;0.00;99.90;;;;;;4987822;28;20030;-60
2021/12/21 09:47:49;;;;;;;20.10;11.93;;;0.10;99.90;;;;;;4982351;28;20560;-61
2021/12/21 09:50:16;;;;;;;20.10;10.83;;;0.20;99.90;;;;;;4986951;28;20041;-62
2021/12/21 09:52:42;;;;;;;14.50;10.07;;;0.30;99.90;;;;;;4988887;28;20077;-62
2021/12/21 09:55:11;;;;;;;15.97;10.30;;;0.40;99.90;;;;;;4981646;28;20049;-61
2021/12/21 09:57:38;;;;;;;20.93;11.53;;;0.50;99.90;;;;;;4990802;28;20038;-62
2021/12/21 10:00:12;;;;;;;18.90;10.53;;;0.60;99.90;;;;;;4991727;28;20103;-60
2021/12/21 10:02:38;;;;;;;14.63;9.30;;;0.70;99.90;;;;;;4983931;28;20092;-63
2021/12/21 10:05:08;;;;;;;23.63;11.30;;;0.80;99.90;;;;;;4989194;28;20038;-62
2021/12/21 10:07:34;;;;;;;17.63;10.70;;;0.90;99.90;;;;;;5000929;28;20080;-60
2021/12/21 10:10:06;;;;;;;20.77;11.13;;;0.90;99.90;;;;;;4992204;28;20056;-63
2021/12/21 10:12:43;;;;;;;19.23;11.03;;;1.00;99.90;;;;;;4983026;28;20452;-61
2021/12/21 10:15:15;;;;;;;17.93;9.97;;;1.20;99.90;;;;;;4986857;28;20155;-63
2021/12/21 10:17:59;;;;;;;23.00;11.23;;;1.20;99.90;;;;;;4988804;28;20375;-62
2021/12/21 10:20:34;;;;;;;18.92;10.10;;;1.40;99.90;;;;;;4984582;28;20074;-61
2021/12/21 10:23:06;;;;;;;26.00;11.33;;;1.50;99.90;;;;;;4990031;28;20388;-61
2021/12/21 10:25:32;;;;;;;23.33;10.73;;;1.50;99.90;;;;;;4979662;28;20116;-61
2021/12/21 10:27:57;;;;;;;22.55;11.43;;;1.60;99.90;;;;;;4989944;28;20150;-62
2021/12/21 10:30:23;;;;;;;23.17;13.50;;;1.70;99.90;;;;;;4976996;28;20074;-62
2021/12/21 10:32:52;;;;;;;15.25;10.50;;;1.80;99.90;;;;;;4985348;28;20574;-62
2021/12/21 10:35:18;;;;;;;22.00;11.55;;;2.00;99.90;;;;;;5002385;28;20037;-66
2021/12/21 10:37:48;;;;;;;20.58;9.10;;;2.00;99.90;;;;;;4974210;28;20120;-62
2021/12/21 10:40:23;;;;;;;17.27;10.13;;;2.20;99.90;;;;;;4985794;28;20374;-63
2021/12/21 10:42:53;;;;;;;19.13;10.63;;;2.30;99.90;;;;;;4991871;28;20037;-62
2021/12/21 10:45:40;;;;;;;30.15;11.90;;;2.40;99.90;;;;;;4994115;28;20042;-64
2021/12/21 10:48:11;;;;;;;14.85;8.57;;;2.50;99.90;;;;;;5009867;28;20034;-63
2021/12/21 10:50:37;;;;;;;23.73;10.18;;;2.60;99.90;;;;;;4989489;28;20046;-64
2021/12/21 10:53:04;;;;;;;18.92;10.35;;;2.70;99.90;;;;;;4999709;28;20114;-62
2021/12/21 10:55:38;;;;;;;16.05;9.57;;;2.80;99.90;;;;;;4990394;28;20041;-62
2021/12/21 10:58:05;;;;;;;;;;;2.80;99.90;;;;;;4992097;28;20124;-62
2021/12/21 11:00:31;;;;;;;22.25;10.60;;;2.90;99.90;;;;;;4974415;28;19971;-64
2021/12/21 11:02:57;;;;;;;16.83;10.13;;;3.00;99.90;;;;;;4985068;28;20046;-65
2021/12/21 11:05:23;;;;;;;21.95;9.07;;;3.10;99.90;;;;;;4989846;28;20484;-61
2021/12/21 11:08:01;;;;;;;17.02;9.65;;;3.20;99.90;;;;;;5003410;28;20041;-62
2021/12/21 11:10:31;;;;;;;20.65;9.90;;;3.30;99.90;;;;;;4990302;28;20353;-61
2021/12/21 11:13:05;;;;;;;18.17;9.00;;;3.40;99.90;;;;;;5000104;28;20061;-65
2021/12/21 11:15:33;;;;;;;;;;;3.50;99.90;;;;;;4967355;28;20449;-61
2021/12/21 11:18:02;;;;;;;25.50;9.27;;;3.60;99.90;;;;;;4999342;28;19935;-61
2021/12/21 11:20:29;;;;;;;15.23;7.38;;;3.60;99.90;;;;;;4987421;28;20039;-62
2021/12/21 11:22:55;;;;;;;17.42;8.55;;;3.70;99.90;;;;;;5007978;28;20033;-61
2021/12/21 11:25:22;;;;;;;17.20;9.45;;;3.80;99.90;;;;;;4993165;28;20045;-64
2021/12/21 11:27:50;;;;;;;18.00;8.57;;;3.90;99.90;;;;;;4993261;28;20050;-61
2021/12/21 11:30:18;;;;;;;17.23;8.43;;;4.00;99.90;;;;;;4989221;28;20041;-63
2021/12/21 11:32:48;;;;;;;12.43;7.40;;;4.00;99.90;;;;;;4974944;28;20085;-61
2021/12/21 11:37:50;;;;;;;16.95;7.95;;;4.20;99.90;;;;;;4987693;28;20046;-65
2021/12/21 11:40:23;;;;;;;14.45;7.90;;;4.20;99.90;;;;;;4975647;28;20052;-62
2021/12/21 11:42:51;;;;;;;14.05;7.57;;;4.30;99.90;;;;;;4984243;28;20944;-63
2021/12/21 11:45:27;;;;;;;15.02;7.70;;;4.30;99.90;;;;;;4973659;28;20053;-61
2021/12/21 11:48:11;;;;;;;14.13;6.93;;;4.50;99.90;;;;;;4991521;28;20104;-64
2021/12/21 11:50:48;;;;;;;11.85;6.75;;;4.60;99.90;;;;;;4983336;28;20132;-64
2021/12/21 11:53:17;;;;;;;13.55;7.25;;;4.60;99.90;;;;;;4982224;28;20167;-61
2021/12/21 11:55:47;;;;;;;14.25;7.30;;;4.70;99.90;;;;;;5014659;28;20112;-65
2021/12/21 11:58:41;;;;;;;15.88;7.15;;;4.80;99.90;;;;;;4989842;28;20488;-62
2021/12/21 12:01:23;;;;;;;13.73;6.68;;;4.90;99.90;;;;;;5008273;28;20042;-62
2021/12/21 12:03:58;;;;;;;13.95;6.40;;;5.00;99.90;;;;;;5000173;28;20053;-64
2021/12/21 12:06:25;;;;;;;9.75;6.22;;;5.10;99.90;;;;;;4994212;28;20038;-64
2021/12/21 12:09:10;;;;;;;11.38;6.35;;;5.10;99.90;;;;;;4990106;28;20120;-63
2021/12/21 12:11:39;;;;;;;15.00;6.32;;;5.20;99.90;;;;;;5007586;28;20523;-65
2021/12/21 12:14:14;;;;;;;13.95;7.97;;;5.20;99.90;;;;;;4989126;28;20487;-62
2021/12/21 12:16:44;;;;;;;18.45;7.43;;;5.20;99.90;;;;;;4997401;28;20045;-63
2021/12/21 12:19:13;;;;;;;17.70;7.60;;;5.20;99.90;;;;;;4984893;28;20106;-62
2021/12/21 12:21:39;;;;;;;12.60;6.80;;;5.20;99.90;;;;;;4996326;28;20113;-63
2021/12/21 12:24:05;;;;;;;14.35;7.95;;;5.10;99.90;;;;;;4991210;28;20038;-65
2021/12/21 12:26:37;;;;;;;12.02;6.40;;;5.10;99.90;;;;;;4998758;28;20558;-62
2021/12/21 12:29:16;;;;;;;12.98;6.97;;;5.20;99.90;;;;;;5006640;28;20117;-63
2021/12/21 12:31:47;;;;;;;11.70;5.80;;;5.20;99.90;;;;;;4997476;28;20046;-63
2021/12/21 12:34:26;;;;;;;13.07;6.57;;;5.20;99.90;;;;;;4994155;28;20432;-63
2021/12/21 12:36:54;;;;;;;14.45;6.18;;;5.20;99.90;;;;;;5002167;28;20122;-63
2021/12/21 12:39:32;;;;;;;13.55;6.40;;;5.30;99.90;;;;;;5020411;28;20762;-62
2021/12/21 12:42:10;;;;;;;14.23;7.53;;;5.30;99.90;;;;;;4997349;28;20041;-63
2021/12/21 12:44:39;;;;;;;20.35;8.25;;;5.20;99.90;;;;;;5018177;28;20041;-62
2021/12/21 12:47:08;;;;;;;14.45;6.63;;;5.20;99.90;;;;;;4990468;28;20045;-62
2021/12/21 12:49:40;;;;;;;11.40;5.50;;;5.20;99.90;;;;;;4999058;28;20050;-64
2021/12/21 12:52:20;;;;;;;13.90;6.60;;;5.20;99.90;;;;;;4991978;28;20040;-64
2021/12/21 12:54:48;;;;;;;10.88;6.53;;;5.10;99.90;;;;;;5000986;28;20045;-61
2021/12/21 12:57:26;;;;;;;10.98;5.65;;;5.00;99.90;;;;;;5013789;28;20426;-62
2021/12/21 13:00:05;;;;;;;11.68;6.25;;;4.90;99.90;;;;;;5001360;28;20046;-60
2021/12/21 13:02:31;;;;;;;19.85;6.57;;;4.80;99.90;;;;;;4994784;28;20267;-63
2021/12/21 13:04:58;;;;;;;17.17;7.03;;;4.80;99.90;;;;;;4991855;28;20710;-63
2021/12/21 13:07:27;;;;;;;11.80;6.47;;;4.70;99.90;;;;;;5009800;28;20094;-60
2021/12/21 13:10:09;;;;;;;17.95;7.57;;;4.70;99.90;;;;;;5011157;28;20100;-63
2021/12/21 13:12:35;;;;;;;14.35;6.25;;;4.60;99.90;;;;;;4988593;28;20042;-61
2021/12/21 13:15:02;;;;;;;17.65;6.10;;;4.60;99.90;;;;;;4988675;28;20057;-61
2021/12/21 13:17:28;;;;;;;11.30;6.63;;;4.50;99.90;;;;;;4985691;28;20451;-62
2021/12/21 13:19:55;;;;;;;13.35;5.95;;;4.50;99.90;;;;;;4989245;28;20567;-63
2021/12/21 13:22:25;;;;;;;13.35;6.00;;;4.50;99.90;;;;;;5009018;28;20050;-63
2021/12/21 13:24:52;;;;;;;13.25;4.82;;;4.40;99.90;;;;;;4989847;28;20038;-64
2021/12/21 13:27:21;;;;;;;9.20;5.45;;;4.40;99.90;;;;;;4997003;28;20484;-60
2021/12/21 13:29:49;;;;;;;19.00;6.35;;;4.40;99.90;;;;;;4971526;28;20045;-62
2021/12/21 13:32:18;;;;;;;12.23;5.90;;;4.30;99.90;;;;;;4993789;28;20046;-62
2021/12/21 13:34:46;;;;;;;11.48;6.18;;;4.30;99.90;;;;;;4987546;28;20423;-61
2021/12/21 13:37:17;;;;;;;13.15;5.80;;;4.30;99.90;;;;;;4986594;28;20146;-63
2021/12/21 13:39:46;;;;;;;13.50;6.40;;;4.20;99.90;;;;;;5005898;28;20053;-61
2021/12/21 13:42:21;;;;;;;7.88;5.60;;;4.20;99.90;;;;;;4989122;28;20064;-61
2021/12/21 13:44:53;;;;;;;8.07;6.00;;;4.20;99.90;;;;;;4990350;28;20088;-61
2021/12/21 13:47:31;;;;;;;14.20;6.07;;;4.10;99.90;;;;;;5007261;28;20488;-61
2021/12/21 13:50:10;;;;;;;14.43;5.63;;;4.10;99.90;;;;;;4990004;28;20057;-62
2021/12/21 13:52:58;;;;;;;11.98;5.55;;;4.10;99.90;;;;;;4984329;28;20053;-61
2021/12/21 13:55:27;;;;;;;14.15;6.63;;;4.00;99.90;;;;;;5009132;28;20056;-61
2021/12/21 13:57:57;;;;;;;13.80;6.32;;;4.00;99.90;;;;;;5005319;28;20141;-63
2021/12/21 14:00:25;;;;;;;13.18;6.00;;;4.00;99.90;;;;;;4990011;28;20046;-61
2021/12/21 14:03:01;;;;;;;11.50;6.22;;;3.90;99.90;;;;;;5007469;28;20129;-62